Flight Track Log - Related Links

Times and Time Zones

All times are in EDT time to prevent confusion due to time zone crossing. See the CTL15 flight status page for this flight to view local times or setup timezone preferences in your user account.

Time Position Orientation Groundspeed Altitude Reporting Facility
EDT Latitude Longitude Course Direction KTS MPH feet Rate Location/Type
06:28PM 40.0708 -83.1358 244° Southwest 119 137 2,300  Level Indianapolis Center
06:29PM 40.0628 -83.1575 244° Southwest 112 129 2,900 983 Climbing Indianapolis Center
06:30PM 40.0408 -83.2058 239° Southwest 118 136 4,200 927 Climbing Indianapolis Center
06:31PM 40.0317 -83.2333 246° West 116 133 4,800 643 Climbing Indianapolis Center
06:32PM 40.0142 -83.2717 239° Southwest 119 137 5,400 779 Climbing Indianapolis Center
06:32PM 40.0058 -83.2861 233° Southwest 121 139 5,800 677 Climbing Indianapolis Center
06:33PM 39.9944 -83.3158 243° Southwest 120 138 6,100 115 Climbing Indianapolis Center
06:34PM 39.9733 -83.3611 239° Southwest 158 182 6,000 -51 Descending Indianapolis Center
06:35PM 39.9533 -83.4078 241° Southwest 152 175 6,000  Level Indianapolis Center
06:36PM 39.9283 -83.4578 237° Southwest 152 175 6,000  Level Indianapolis Center
06:37PM 39.9056 -83.5044 238° Southwest 154 177 6,000 -293 Level Indianapolis Center
06:38PM 39.8825 -83.5556 240° Southwest 159 183 5,400 -488 Descending Indianapolis Center
06:39PM 39.8531 -83.6164 238° Southwest 167 192 5,000 -202 Descending Indianapolis Center
06:40PM 39.8319 -83.6647 240° Southwest 164 189 5,000 -484 Level Indianapolis Center
06:41PM 39.8053 -83.7181 237° Southwest 165 190 4,000 -750 Descending Indianapolis Center
06:42PM 39.7775 -83.7747 237° Southwest 171 197 3,400 -522 Descending Indianapolis Center
06:43PM 39.7553 -83.8208 238° Southwest 166 191 3,000 -220 Descending Indianapolis Center
06:44PM 39.7372 -83.8647 242° Southwest 153 176 3,000  Level Indianapolis Center
06:44PM 39.7328 -83.8719 231° Southwest 162 186 3,000  Level Indianapolis Center
06:45PM 39.7119 -83.9172 239° Southwest 152 175 3,000  Level Indianapolis Center
06:47PM 39.6821 -83.9782 243° Southwest  Level FlightAware Approximate
06:54PM 39.5833 -84.2167 237° Southwest  Level FlightAware Approximate
06:55PM 39.5890 -84.2249 237° Southwest  Level Estimated
06:56PM 39.5890 -84.2249 237° Southwest  Level Estimated

Login

Don't have an account? Register now (free) for customized features, flight alerts, and more!